Time;durP1;ratioP1;P1;durP2;ratioP2;P2;SDS_P1;SDS_P2;PMS_P1;PMS_P2;Temp;Humidity;BMP_temperature;BMP_pressure;BME280_temperature;BME280_humidity;BME280_pressure;Samples;Min_cycle;Max_cycle;Signal;HPM_P1;HPM_P2
2023/10/15 00:04:36;;;;;;;11.95;1.65;;;;;;;6.03;82.43;100451.78;10249161;29;20127;-78
2023/10/15 00:09:39;;;;;;;13.48;3.47;;;;;;;6.15;80.90;100449.22;10264334;29;20059;-82
2023/10/15 00:14:42;;;;;;;13.00;2.10;;;;;;;6.23;80.70;100446.09;10250861;29;20131;-81
2023/10/15 00:19:46;;;;;;;9.13;2.00;;;;;;;5.86;83.11;100455.47;10234848;29;20039;-79
2023/10/15 00:24:51;;;;;;;10.77;1.77;;;;;;;6.06;82.38;100451.59;10229763;29;20135;-79
2023/10/15 00:29:55;;;;;;;17.75;2.50;;;;;;;5.86;82.63;100453.66;10210320;29;20076;-79
2023/10/15 00:34:59;;;;;;;10.57;2.05;;;;;;;6.00;81.32;100451.97;10213058;29;20058;-78
2023/10/15 00:40:04;;;;;;;10.88;1.88;;;;;;;5.97;81.54;100450.34;10227056;29;20075;-79
2023/10/15 00:45:10;;;;;;;8.18;2.28;;;;;;;5.91;81.56;100469.38;10242431;29;20049;-78
2023/10/15 00:50:17;;;;;;;13.90;2.22;;;;;;;6.01;82.29;100467.03;10236313;29;20075;-78
2023/10/15 00:55:20;;;;;;;11.50;2.33;;;;;;;6.02;82.13;100471.41;10247978;29;20046;-79
2023/10/15 01:00:53;;;;;;;11.05;2.00;;;;;;;6.42;80.19;100476.94;10209223;29;20080;-79
2023/10/15 01:06:04;;;;;;;12.20;1.85;;;;;;;6.08;81.36;100476.34;10213707;29;20070;-79
2023/10/15 01:11:09;;;;;;;13.68;2.65;;;;;;;6.35;80.34;100461.31;10216630;29;20055;-78
2023/10/15 01:16:17;;;;;;;15.35;2.33;;;;;;;6.13;81.21;100450.28;10206534;29;20048;-78
2023/10/15 01:21:26;;;;;;;13.43;2.03;;;;;;;5.97;81.70;100447.69;10227221;29;20634;-79
2023/10/15 01:26:34;;;;;;;7.30;1.65;;;;;;;6.17;81.54;100466.00;10213552;29;20072;-79
2023/10/15 01:31:41;;;;;;;10.02;2.13;;;;;;;6.40;79.89;100464.56;10205577;29;20063;-79
2023/10/15 01:36:47;;;;;;;8.32;1.60;;;;;;;6.19;80.67;100447.22;10201505;29;20047;-79
2023/10/15 01:41:57;;;;;;;13.63;1.92;;;;;;;6.31;80.28;100443.81;10216037;29;20047;-79
2023/10/15 01:47:09;;;;;;;12.57;1.48;;;;;;;6.11;80.79;100434.34;10226752;29;20051;-79
2023/10/15 01:52:12;;;;;;;12.07;2.57;;;;;;;6.61;78.29;100433.00;10208102;29;20175;-79
2023/10/15 01:57:17;;;;;;;5.40;1.42;;;;;;;6.28;79.81;100436.00;10227740;29;20487;-77
2023/10/15 02:02:23;;;;;;;9.65;1.75;;;;;;;6.68;78.43;100435.28;10195174;29;20048;-80
2023/10/15 02:07:30;;;;;;;11.40;1.42;;;;;;;6.16;80.45;100432.25;10216557;29;20075;-80
2023/10/15 02:12:35;;;;;;;6.35;1.50;;;;;;;6.34;79.76;100450.75;10205887;29;20044;-79
2023/10/15 02:17:38;;;;;;;6.50;1.30;;;;;;;6.33;81.28;100438.34;10205771;29;20048;-79
2023/10/15 02:22:43;;;;;;;6.85;1.30;;;;;;;5.95;84.29;100442.47;10199011;29;20557;-79
2023/10/15 02:27:47;;;;;;;8.00;1.83;;;;;;;5.92;84.89;100450.66;10197733;29;20049;-79
2023/10/15 02:32:53;;;;;;;9.90;1.77;;;;;;;6.12;85.29;100429.91;10198030;29;20052;-79
2023/10/15 02:37:58;;;;;;;8.50;1.67;;;;;;;6.25;83.63;100430.81;10229021;29;20040;-79
2023/10/15 02:43:06;;;;;;;5.28;1.80;;;;;;;6.26;83.38;100445.06;10200249;29;20046;-79
2023/10/15 02:48:10;;;;;;;9.98;1.42;;;;;;;6.13;83.81;100452.94;10229571;29;20131;-79
2023/10/15 02:53:13;;;;;;;7.95;1.30;;;;;;;5.84;85.69;100428.91;10201458;29;20039;-79
2023/10/15 02:58:22;;;;;;;2.60;0.75;;;;;;;5.82;86.55;100443.28;10215498;29;20066;-78
2023/10/15 03:03:32;;;;;;;5.53;1.27;;;;;;;5.87;87.20;100433.19;10205460;29;20464;-79
2023/10/15 03:08:36;;;;;;;4.82;1.02;;;;;;;5.47;88.11;100436.44;10218179;29;20048;-79
2023/10/15 03:13:54;;;;;;;5.78;1.20;;;;;;;5.77;87.76;100448.88;10204874;29;20035;-79
2023/10/15 03:19:07;;;;;;;8.75;0.93;;;;;;;5.78;86.85;100449.75;10213849;29;20111;-78
2023/10/15 03:24:10;;;;;;;7.63;1.02;;;;;;;6.05;85.32;100447.22;10202427;29;20086;-79
2023/10/15 03:29:14;;;;;;;6.78;1.13;;;;;;;5.68;85.99;100449.44;10206847;29;20054;-78
2023/10/15 03:34:21;;;;;;;5.50;0.73;;;;;;;6.02;84.36;100442.06;10193939;29;20048;-79
2023/10/15 03:39:44;;;;;;;2.10;0.95;;;;;;;5.66;85.51;100448.69;10197927;29;20047;-78
2023/10/15 03:44:48;;;;;;;3.97;0.70;;;;;;;5.62;86.25;100452.44;10220812;29;20096;-79
2023/10/15 03:49:52;;;;;;;1.67;0.43;;;;;;;5.78;85.07;100465.72;10217440;29;20499;-78
2023/10/15 03:54:55;;;;;;;5.00;0.60;;;;;;;5.86;85.29;100455.47;10225679;29;20613;-79
2023/10/15 04:00:00;;;;;;;3.85;0.55;;;;;;;5.58;86.75;100451.78;10230772;29;20498;-79
2023/10/15 04:05:08;;;;;;;1.50;0.50;;;;;;;5.83;86.19;100451.19;10224172;29;20039;-78
2023/10/15 04:10:12;;;;;;;3.38;0.57;;;;;;;5.48;89.19;100458.59;10230503;29;20129;-78
2023/10/15 04:15:17;;;;;;;2.83;0.55;;;;;;;5.40;89.66;100460.84;10227936;29;20054;-79
2023/10/15 04:20:26;;;;;;;1.15;0.38;;;;;;;5.11;91.92;100454.56;10217263;29;20035;-78
2023/10/15 04:25:32;;;;;;;0.50;0.30;;;;;;;5.56;89.41;100461.66;10212206;29;20040;-78
2023/10/15 04:30:39;;;;;;;1.30;0.65;;;;;;;5.61;89.03;100456.09;10219480;29;20042;-79
2023/10/15 04:35:42;;;;;;;3.05;0.50;;;;;;;5.33;90.49;100451.53;10220785;29;20044;-78
2023/10/15 04:40:59;;;;;;;1.70;0.40;;;;;;;5.33;89.88;100451.53;10228750;29;20427;-78
2023/10/15 04:46:07;;;;;;;2.55;0.65;;;;;;;5.35;90.73;100444.28;10220451;29;20578;-79
2023/10/15 04:51:12;;;;;;;3.33;1.20;;;;;;;5.51;90.50;100445.09;10188946;29;20116;-78
2023/10/15 04:56:15;;;;;;;4.10;1.00;;;;;;;5.66;89.58;100446.88;10209833;29;20067;-79
2023/10/15 05:01:20;;;;;;;1.65;0.77;;;;;;;5.64;89.18;100455.91;10209961;29;20086;-79
2023/10/15 05:06:24;;;;;;;3.92;1.30;;;;;;;5.50;91.00;100454.91;10223078;29;20074;-79
2023/10/15 05:11:28;;;;;;;2.58;0.85;;;;;;;5.57;89.72;100452.75;10220403;29;20051;-78
2023/10/15 05:16:33;;;;;;;1.90;0.88;;;;;;;5.23;91.36;100445.84;10222415;29;20447;-78
2023/10/15 05:21:36;;;;;;;2.25;0.98;;;;;;;5.54;91.25;100442.28;10224362;29;20043;-79
2023/10/15 05:26:40;;;;;;;4.50;1.65;;;;;;;5.68;89.73;100436.13;10226700;29;20122;-79
2023/10/15 05:31:44;;;;;;;2.50;1.40;;;;;;;5.15;92.79;100440.97;10217855;29;20495;-79
2023/10/15 05:36:48;;;;;;;2.33;1.50;;;;;;;5.27;92.89;100439.41;10226746;29;20058;-78
2023/10/15 05:41:52;;;;;;;4.30;1.35;;;;;;;5.59;90.69;100442.84;10245669;29;20039;-80
2023/10/15 05:46:56;;;;;;;2.22;1.30;;;;;;;5.33;92.80;100451.53;10228201;29;20057;-80
2023/10/15 05:51:59;;;;;;;2.10;1.90;;;;;;;5.21;93.50;100458.41;10221150;29;20052;-79
2023/10/15 05:57:05;;;;;;;3.47;2.03;;;;;;;5.26;93.38;100467.84;10221483;29;20063;-80
2023/10/15 06:02:10;;;;;;;6.35;2.28;;;;;;;5.46;91.75;100480.03;10211867;29;20075;-80
2023/10/15 06:07:13;;;;;;;6.07;2.40;;;;;;;5.35;92.26;100479.78;10212535;29;20052;-78
2023/10/15 06:12:15;;;;;;;2.45;1.90;;;;;;;5.50;91.62;100486.03;10197821;29;20051;-79
2023/10/15 06:17:20;;;;;;;5.68;2.03;;;;;;;5.43;91.50;100487.31;10210025;29;20051;-79
2023/10/15 06:22:25;;;;;;;3.97;1.92;;;;;;;5.35;91.83;100493.09;10229460;29;20036;-79
2023/10/15 06:27:28;;;;;;;3.67;1.70;;;;;;;5.63;90.40;100487.03;10200172;29;20431;-78
2023/10/15 06:32:33;;;;;;;6.85;1.80;;;;;;;5.45;91.78;100501.41;10197364;29;20055;-78
2023/10/15 06:37:38;;;;;;;2.35;1.58;;;;;;;5.41;91.27;100497.22;10208042;29;20089;-78
2023/10/15 06:42:41;;;;;;;3.50;1.55;;;;;;;5.48;91.94;100509.22;10190182;29;20633;-78
2023/10/15 06:47:47;;;;;;;3.58;1.50;;;;;;;5.61;91.52;100506.72;10211422;29;20040;-78
2023/10/15 06:52:50;;;;;;;4.72;2.05;;;;;;;5.97;89.10;100521.47;10224788;29;20536;-80
2023/10/15 06:57:53;;;;;;;6.43;1.25;;;;;;;6.07;88.63;100528.84;10210047;29;20057;-78
2023/10/15 07:02:58;;;;;;;2.05;0.82;;;;;;;5.33;92.37;100526.09;10201684;29;20130;-78
2023/10/15 07:14:35;;;;;;;3.00;1.30;;;;;;;5.81;90.01;100534.84;10204880;29;20044;-79
2023/10/15 07:19:39;;;;;;;2.13;1.02;;;;;;;5.95;89.04;100543.78;10204445;29;20099;-80
2023/10/15 07:24:42;;;;;;;2.42;1.10;;;;;;;6.64;85.42;100557.41;10211185;29;20075;-80
2023/10/15 07:29:48;;;;;;;2.67;1.33;;;;;;;6.71;84.49;100577.44;10219087;29;20075;-78
2023/10/15 07:34:53;;;;;;;2.20;1.00;;;;;;;6.34;85.65;100566.34;10182770;29;20972;-79
2023/10/15 07:39:56;;;;;;;3.40;1.67;;;;;;;6.26;86.18;100565.94;10127705;29;20049;-77
2023/10/15 07:44:59;;;;;;;1.88;0.90;;;;;;;6.44;84.71;100571.97;10131527;29;20068;-77
2023/10/15 07:50:04;;;;;;;3.63;1.20;;;;;;;6.75;83.74;100568.28;10130258;29;20076;-78
2023/10/15 07:55:10;;;;;;;6.80;1.20;;;;;;;6.80;84.10;100573.31;10150198;29;20055;-79
2023/10/15 08:00:15;;;;;;;2.40;0.70;;;;;;;6.81;81.85;100580.41;10129222;29;20464;-79
2023/10/15 08:05:20;;;;;;;1.85;1.10;;;;;;;6.89;83.37;100574.63;10137032;29;20052;-78
2023/10/15 08:10:24;;;;;;;4.78;1.40;;;;;;;7.53;80.67;100581.19;10135860;29;20052;-79
2023/10/15 08:15:28;;;;;;;3.85;1.42;;;;;;;7.17;81.92;100600.44;10133780;29;20033;-79
2023/10/15 08:20:32;;;;;;;5.30;1.52;;;;;;;8.07;77.96;100607.06;10132218;29;20044;-78
2023/10/15 08:25:36;;;;;;;2.60;0.88;;;;;;;7.85;77.29;100603.13;10130965;29;20051;-78
2023/10/15 08:30:41;;;;;;;3.03;0.90;;;;;;;7.36;78.01;100616.16;10139772;29;20100;-78
2023/10/15 08:35:45;;;;;;;3.15;1.10;;;;;;;7.60;78.42;100606.56;10132140;29;20123;-78
2023/10/15 08:40:50;;;;;;;4.00;1.10;;;;;;;7.34;79.31;100618.91;10132002;29;20064;-77
2023/10/15 08:45:55;;;;;;;3.65;0.93;;;;;;;7.37;77.99;100625.88;10127015;29;20049;-78
2023/10/15 08:51:01;;;;;;;4.05;1.48;;;;;;;7.62;76.86;100622.50;10135459;29;20056;-79
2023/10/15 08:56:06;;;;;;;5.95;2.65;;;;;;;7.82;76.24;100622.06;10127976;29;20129;-80
2023/10/15 09:01:13;;;;;;;2.95;1.73;;;;;;;7.90;75.71;100622.41;10142228;29;20128;-77
2023/10/15 09:06:18;;;;;;;4.28;1.17;;;;;;;7.45;77.53;100650.31;10143096;29;20551;-80
2023/10/15 09:11:21;;;;;;;3.50;1.20;;;;;;;7.64;76.15;100648.16;10140882;29;20060;-80
2023/10/15 09:16:26;;;;;;;0.68;0.60;;;;;;;8.34;74.45;100647.16;10140785;29;20056;-80
2023/10/15 09:21:32;;;;;;;3.15;1.00;;;;;;;8.30;73.74;100651.84;10139870;29;20048;-80
2023/10/15 09:26:38;;;;;;;2.92;0.70;;;;;;;8.29;73.22;100665.34;10135362;29;20090;-79
2023/10/15 09:31:42;;;;;;;2.35;0.90;;;;;;;8.14;73.98;100662.72;10129633;29;20057;-80
2023/10/15 09:36:47;;;;;;;3.22;1.40;;;;;;;8.31;71.46;100671.44;10136789;29;20045;-79
2023/10/15 09:41:50;;;;;;;3.25;0.70;;;;;;;8.36;72.15;100674.66;10133750;29;20051;-79
2023/10/15 09:46:54;;;;;;;2.28;1.00;;;;;;;8.51;70.82;100670.16;10129984;29;20048;-80
2023/10/15 09:52:01;;;;;;;3.70;0.60;;;;;;;8.74;69.05;100679.28;10136090;29;20045;-79
2023/10/15 09:57:06;;;;;;;2.13;0.57;;;;;;;8.38;71.29;100696.84;10126755;29;20052;-79
2023/10/15 10:02:16;;;;;;;2.15;0.93;;;;;;;8.16;72.15;100692.91;10098448;29;20053;-80
2023/10/15 10:07:47;;;;;;;2.47;0.57;;;;;;;8.14;70.49;100700.19;10094118;29;20056;-79
2023/10/15 10:13:07;;;;;;;3.47;0.80;;;;;;;8.64;68.49;100704.97;10106306;29;20147;-80
2023/10/15 10:18:13;;;;;;;1.75;0.32;;;;;;;8.78;66.00;100689.69;10093493;29;20056;-80
2023/10/15 10:23:19;;;;;;;3.10;0.85;;;;;;;8.30;68.88;100705.38;10095589;29;20044;-81
2023/10/15 10:28:22;;;;;;;2.15;0.73;;;;;;;9.88;61.34;100698.94;10088096;29;20048;-80
2023/10/15 10:33:54;;;;;;;2.70;0.63;;;;;;;9.33;64.08;100698.38;10089407;29;20059;-81
2023/10/15 10:39:11;;;;;;;1.55;0.70;;;;;;;10.59;60.30;100699.91;10085761;29;20082;-80
2023/10/15 10:44:38;;;;;;;2.88;0.60;;;;;;;11.11;56.30;100697.69;10097057;29;20056;-81
2023/10/15 10:49:42;;;;;;;2.10;0.47;;;;;;;10.50;58.83;100705.94;10095389;29;20508;-81
2023/10/15 10:54:47;;;;;;;5.95;0.73;;;;;;;11.01;57.29;100711.00;10092962;29;20055;-80
2023/10/15 10:59:50;;;;;;;2.00;1.05;;;;;;;11.68;54.98;100716.47;10099701;29;20740;-79
2023/10/15 11:04:53;;;;;;;1.40;0.50;;;;;;;10.52;56.50;100712.91;10096764;29;20063;-79
2023/10/15 11:10:01;;;;;;;3.40;0.82;;;;;;;10.25;58.77;100715.84;10094161;29;20523;-78
2023/10/15 11:15:08;;;;;;;3.08;0.35;;;;;;;10.83;60.01;100711.47;10093978;29;20751;-78
2023/10/15 11:20:16;;;;;;;5.90;0.80;;;;;;;13.00;51.06;100704.63;10088190;29;20063;-79
2023/10/15 11:25:23;;;;;;;2.67;0.50;;;;;;;12.61;52.33;100707.03;10088093;29;20053;-79
2023/10/15 11:30:26;;;;;;;2.05;0.50;;;;;;;10.92;55.87;100714.41;10093130;29;20105;-80
2023/10/15 11:35:31;;;;;;;1.65;0.50;;;;;;;10.15;57.22;100720.22;10095351;29;20108;-80
2023/10/15 11:40:38;;;;;;;1.77;0.50;;;;;;;10.34;56.66;100728.59;10117782;29;20056;-78
2023/10/15 11:45:42;;;;;;;1.02;0.30;;;;;;;11.01;56.24;100711.84;10092075;29;20543;-79
2023/10/15 11:50:46;;;;;;;1.17;0.57;;;;;;;13.55;51.62;100713.34;10122160;29;20048;-79
2023/10/15 11:55:53;;;;;;;1.63;0.80;;;;;;;11.22;53.07;100714.72;10141650;29;20044;-79
2023/10/15 12:00:58;;;;;;;3.47;0.70;;;;;;;11.27;55.21;100722.41;10113695;29;20460;-77
2023/10/15 12:06:04;;;;;;;1.77;0.47;;;;;;;12.68;51.79;100721.72;10100195;29;20056;-79
2023/10/15 12:11:08;;;;;;;2.05;0.40;;;;;;;11.84;50.81;100734.03;10095269;29;20067;-79
2023/10/15 12:16:12;;;;;;;3.10;0.63;;;;;;;11.21;52.30;100720.22;10103889;29;20056;-78
2023/10/15 12:21:16;;;;;;;1.55;0.40;;;;;;;9.33;55.96;100735.91;10105098;29;20048;-79
2023/10/15 12:26:21;;;;;;;1.23;0.68;;;;;;;10.73;54.83;100733.78;10100036;29;20055;-77
2023/10/15 12:31:24;;;;;;;3.58;0.60;;;;;;;10.93;53.88;100729.56;10102327;29;20505;-78
2023/10/15 12:36:28;;;;;;;3.17;0.80;;;;;;;9.50;61.93;100753.47;10107734;29;20048;-80
2023/10/15 12:41:36;;;;;;;4.97;0.70;;;;;;;7.83;82.88;100789.59;10103317;29;20052;-79
2023/10/15 12:46:40;;;;;;;6.40;1.20;;;;;;;7.26;90.31;100792.25;10098037;29;20057;-79
2023/10/15 12:51:44;;;;;;;2.42;0.88;;;;;;;7.37;93.29;100784.41;10099445;29;20056;-78
2023/10/15 12:56:48;;;;;;;1.17;0.65;;;;;;;7.76;97.74;100788.25;10088867;29;20064;-79
2023/10/15 13:01:51;;;;;;;3.33;0.40;;;;;;;8.43;100.00;100785.75;10092356;29;21589;-79
2023/10/15 13:06:54;;;;;;;2.20;0.40;;;;;;;12.82;83.09;100769.91;10103389;29;20133;-79
2023/10/15 13:12:01;;;;;;;0.30;0.28;;;;;;;15.08;63.63;100763.34;10089893;29;20083;-79
2023/10/15 13:17:04;;;;;;;3.08;0.50;;;;;;;15.85;71.29;100772.25;10096735;29;20056;-80
2023/10/15 13:22:07;;;;;;;2.80;0.52;;;;;;;16.88;65.56;100771.06;10094361;29;20072;-81
2023/10/15 13:27:12;;;;;;;1.50;0.47;;;;;;;14.27;58.37;100787.03;10098084;29;20059;-81
2023/10/15 13:32:16;;;;;;;1.55;0.50;;;;;;;9.75;71.51;100808.06;10097890;29;20052;-80
2023/10/15 13:37:19;;;;;;;1.25;0.40;;;;;;;5.57;89.02;100823.19;10097295;29;20065;-79
2023/10/15 13:42:23;;;;;;;0.32;0.28;;;;;;;7.31;87.85;100808.84;10106565;29;20540;-80
2023/10/15 13:47:26;;;;;;;2.83;0.85;;;;;;;7.26;90.28;100819.81;10133272;29;20523;-81
2023/10/15 13:52:29;;;;;;;2.40;0.55;;;;;;;7.38;90.38;100826.25;10107942;29;20045;-80
2023/10/15 13:57:34;;;;;;;3.00;0.93;;;;;;;9.59;94.25;100822.56;10107697;29;20064;-80
2023/10/15 14:02:40;;;;;;;2.28;0.73;;;;;;;11.37;82.91;100822.09;10096289;29;20419;-81
2023/10/15 14:07:45;;;;;;;1.67;0.75;;;;;;;9.91;75.43;100830.19;10104399;29;20128;-81
2023/10/15 14:12:50;;;;;;;3.15;1.00;;;;;;;8.66;81.16;100836.94;10107072;29;20057;-81
2023/10/15 14:18:01;;;;;;;2.03;0.70;;;;;;;8.30;82.24;100835.69;10099422;29;20071;-81
2023/10/15 14:23:05;;;;;;;3.38;1.10;;;;;;;7.99;83.27;100847.50;10130203;29;20060;-80
2023/10/15 14:28:09;;;;;;;3.72;0.93;;;;;;;8.95;82.91;100845.75;10101848;29;20097;-81
2023/10/15 14:33:12;;;;;;;2.85;0.57;;;;;;;8.69;77.02;100853.66;10127829;29;20049;-80
2023/10/15 14:38:15;;;;;;;1.67;0.35;;;;;;;8.48;73.83;100853.28;10099530;29;20048;-80
2023/10/15 14:43:20;;;;;;;1.15;0.45;;;;;;;9.45;71.61;100869.09;10104723;29;20717;-80
2023/10/15 14:48:26;;;;;;;0.85;0.40;;;;;;;10.16;70.37;100861.50;10099747;29;20048;-81
2023/10/15 14:53:29;;;;;;;2.88;0.68;;;;;;;10.42;70.23;100872.19;10095415;29;20075;-80
2023/10/15 14:58:33;;;;;;;1.30;0.75;;;;;;;10.26;66.52;100876.00;10098952;29;20120;-81
2023/10/15 15:03:36;;;;;;;2.65;1.92;;;;;;;9.56;67.70;100878.25;10099007;29;20056;-79
2023/10/15 15:08:39;;;;;;;1.35;0.57;;;;;;;9.51;67.13;100881.22;10101632;29;20628;-80
2023/10/15 15:13:44;;;;;;;2.33;0.50;;;;;;;9.96;65.64;100886.25;10091412;29;20048;-80
2023/10/15 15:18:47;;;;;;;2.58;0.50;;;;;;;9.56;65.87;100888.97;10099819;29;20105;-78
2023/10/15 15:23:49;;;;;;;4.05;0.40;;;;;;;9.12;67.48;100887.50;10098016;29;20352;-80
2023/10/15 15:28:54;;;;;;;4.47;0.57;;;;;;;8.77;68.51;100886.16;10098736;29;20064;-80
2023/10/15 15:33:57;;;;;;;3.80;1.17;;;;;;;8.58;70.55;100883.84;10090387;29;20079;-79
2023/10/15 15:39:00;;;;;;;3.10;0.50;;;;;;;8.25;71.27;100892.16;10122959;29;20059;-79
2023/10/15 15:44:05;;;;;;;2.80;0.50;;;;;;;8.11;72.19;100898.41;10086477;29;20057;-79
2023/10/15 15:49:11;;;;;;;4.18;0.70;;;;;;;8.37;71.62;100899.44;10108393;29;20506;-80
2023/10/15 15:54:14;;;;;;;3.78;0.50;;;;;;;8.40;72.00;100895.72;10095380;29;20060;-79
2023/10/15 15:59:18;;;;;;;4.38;0.85;;;;;;;8.39;72.20;100900.22;10089449;29;20096;-80
2023/10/15 16:04:22;;;;;;;2.42;0.80;;;;;;;8.18;72.42;100902.41;10097589;29;20152;-77
2023/10/15 16:09:26;;;;;;;4.72;1.00;;;;;;;8.20;73.44;100912.16;10096993;29;20056;-78
2023/10/15 16:14:31;;;;;;;4.25;1.52;;;;;;;7.71;74.21;100924.94;10100905;29;20045;-80
2023/10/15 16:19:34;;;;;;;3.47;0.85;;;;;;;7.37;76.22;100927.91;10097266;29;20053;-80
2023/10/15 16:24:37;;;;;;;3.38;1.00;;;;;;;7.51;74.97;100938.63;10090270;29;20045;-78
2023/10/15 16:29:47;;;;;;;3.03;0.80;;;;;;;7.10;76.13;100941.91;10090721;29;20049;-79
2023/10/15 16:34:50;;;;;;;5.07;0.85;;;;;;;7.28;75.69;100948.88;10097831;29;20045;-79
2023/10/15 16:39:53;;;;;;;4.45;1.27;;;;;;;7.00;77.19;100952.28;10093700;29;20049;-81
2023/10/15 16:44:57;;;;;;;5.03;1.50;;;;;;;6.76;76.82;100964.31;10098203;29;20057;-78
2023/10/15 16:50:00;;;;;;;4.80;0.80;;;;;;;7.17;77.27;100972.69;10105057;29;20083;-80
2023/10/15 16:55:03;;;;;;;2.85;0.82;;;;;;;7.29;76.94;100963.09;10104771;29;20168;-80
2023/10/15 17:00:10;;;;;;;3.80;1.15;;;;;;;7.27;76.76;100971.22;10102094;29;20076;-81
2023/10/15 17:05:13;;;;;;;1.13;0.43;;;;;;;6.85;77.31;100964.66;10100524;29;20067;-81
2023/10/15 17:10:16;;;;;;;2.88;1.00;;;;;;;7.16;78.04;100979.00;10128609;29;20247;-81
2023/10/15 17:15:20;;;;;;;2.33;0.82;;;;;;;6.64;81.20;100984.56;10110445;29;20063;-80
2023/10/15 17:20:24;;;;;;;4.55;1.48;;;;;;;6.71;81.55;100991.25;10106280;29;20095;-80
2023/10/15 17:25:27;;;;;;;2.65;1.13;;;;;;;6.17;84.44;100990.63;10098316;29;20052;-80
2023/10/15 17:30:32;;;;;;;2.60;1.05;;;;;;;6.61;83.18;100990.94;10095705;29;20127;-77
2023/10/15 17:35:35;;;;;;;3.47;1.40;;;;;;;6.53;83.49;100997.63;10100703;29;20581;-77
2023/10/15 17:40:41;;;;;;;3.30;1.20;;;;;;;6.51;83.49;101004.84;10102630;29;20060;-79
2023/10/15 17:45:48;;;;;;;4.07;1.08;;;;;;;6.41;84.38;100996.47;10104586;29;20048;-80
2023/10/15 17:50:54;;;;;;;4.05;1.60;;;;;;;6.28;85.32;101000.72;10116636;29;20100;-80
2023/10/15 17:55:57;;;;;;;2.05;1.30;;;;;;;6.01;86.97;101005.75;10105620;29;20044;-79
2023/10/15 18:01:05;;;;;;;3.17;1.20;;;;;;;5.91;87.43;101008.88;10104031;29;20056;-80
2023/10/15 18:06:09;;;;;;;4.07;1.30;;;;;;;6.02;86.83;101015.47;10104840;29;20055;-81
2023/10/15 18:11:12;;;;;;;5.03;1.20;;;;;;;5.86;88.19;101026.03;10097489;29;20063;-79
2023/10/15 18:16:18;;;;;;;3.35;1.75;;;;;;;5.99;87.02;101023.63;10107514;29;21464;-80
2023/10/15 18:21:21;;;;;;;2.63;1.05;;;;;;;5.95;87.06;101022.91;10119933;29;20068;-79
2023/10/15 18:26:24;;;;;;;3.92;1.15;;;;;;;5.89;87.51;101023.22;10097617;29;20052;-80
2023/10/15 18:31:29;;;;;;;3.20;1.33;;;;;;;5.78;88.45;101033.56;10095749;29;20048;-80
2023/10/15 18:36:33;;;;;;;4.38;1.60;;;;;;;5.67;88.59;101032.28;10120108;29;20516;-80
2023/10/15 18:41:38;;;;;;;6.18;1.63;;;;;;;5.64;88.81;101036.94;10102293;29;20068;-79
2023/10/15 18:46:42;;;;;;;2.55;1.48;;;;;;;5.71;88.30;101049.03;10098593;29;20048;-79
2023/10/15 18:51:45;;;;;;;5.70;1.55;;;;;;;5.80;87.76;101045.88;10096259;29;20068;-80
2023/10/15 18:56:49;;;;;;;3.92;1.30;;;;;;;5.61;88.38;101050.41;10101095;29;20913;-78
2023/10/15 19:01:53;;;;;;;2.97;1.27;;;;;;;5.53;88.26;101058.78;10089151;29;20599;-80
2023/10/15 19:06:56;;;;;;;7.28;1.48;;;;;;;5.66;88.93;101059.91;10088849;29;20145;-80
2023/10/15 19:11:59;;;;;;;2.58;1.25;;;;;;;5.40;90.39;101058.53;10095015;29;20140;-79
2023/10/15 19:17:03;;;;;;;2.75;1.80;;;;;;;5.77;89.37;101067.38;10092319;29;20720;-79
2023/10/15 19:22:06;;;;;;;3.30;1.83;;;;;;;5.26;92.64;101076.97;10093498;29;20094;-78
2023/10/15 19:27:09;;;;;;;7.68;1.42;;;;;;;5.42;90.54;101080.63;10090047;29;20057;-79
2023/10/15 19:32:16;;;;;;;4.97;1.45;;;;;;;5.50;89.66;101081.13;10090539;29;20053;-78
2023/10/15 19:37:21;;;;;;;9.13;1.63;;;;;;;5.69;88.87;101077.56;10095642;29;20052;-79
2023/10/15 19:42:24;;;;;;;4.57;1.30;;;;;;;5.42;90.22;101093.94;10092460;29;20064;-79
2023/10/15 19:47:28;;;;;;;5.72;1.30;;;;;;;5.53;89.62;101093.44;10093122;29;20049;-79
2023/10/15 19:52:32;;;;;;;4.00;1.25;;;;;;;5.58;88.70;101095.88;10097379;29;20048;-78
2023/10/15 19:57:36;;;;;;;7.72;1.38;;;;;;;5.37;89.55;101103.97;10093256;29;20060;-79
2023/10/15 20:02:40;;;;;;;3.88;1.65;;;;;;;5.45;89.62;101100.94;10116818;29;20049;-78
2023/10/15 20:07:43;;;;;;;4.47;1.50;;;;;;;5.73;87.94;101112.00;10089670;29;20079;-79
2023/10/15 20:12:47;;;;;;;2.17;1.13;;;;;;;5.81;87.28;101111.59;10087582;29;20045;-79
2023/10/15 20:17:51;;;;;;;6.35;1.45;;;;;;;5.37;89.60;101119.94;10098298;29;20045;-78
2023/10/15 20:22:55;;;;;;;1.52;1.13;;;;;;;5.28;89.60;101113.25;10098950;29;20071;-79
2023/10/15 20:27:58;;;;;;;7.35;1.60;;;;;;;4.97;91.10;101120.94;10105400;29;20056;-80
2023/10/15 20:33:02;;;;;;;7.22;1.70;;;;;;;4.78;92.09;101119.09;10095841;29;20056;-77
2023/10/15 20:38:07;;;;;;;2.30;1.15;;;;;;;5.00;91.03;101121.69;10101141;29;20061;-79
2023/10/15 20:43:10;;;;;;;3.15;1.60;;;;;;;4.98;91.41;101118.19;10091265;29;20532;-79
2023/10/15 20:48:14;;;;;;;1.55;0.80;;;;;;;4.96;90.99;101105.88;10082590;29;20083;-79
2023/10/15 20:53:17;;;;;;;4.88;1.30;;;;;;;5.37;88.90;101114.63;10080782;29;20049;-77
2023/10/15 20:58:21;;;;;;;4.20;1.70;;;;;;;5.21;89.09;101106.50;10078282;29;20048;-76
2023/10/15 21:03:26;;;;;;;1.88;1.20;;;;;;;5.15;89.17;101111.25;10074806;29;20084;-77
2023/10/15 21:08:30;;;;;;;4.20;1.58;;;;;;;5.26;88.41;101111.59;10079772;29;20057;-77
2023/10/15 21:13:33;;;;;;;6.25;2.03;;;;;;;5.28;88.44;101113.25;10084703;29;20052;-77
2023/10/15 21:18:38;;;;;;;3.88;1.77;;;;;;;5.38;87.70;101113.69;10084196;29;20052;-77
2023/10/15 21:23:42;;;;;;;10.38;1.58;;;;;;;5.30;87.98;101101.69;10087140;29;20053;-77
2023/10/15 21:28:45;;;;;;;5.75;1.80;;;;;;;5.18;88.75;101097.78;10086251;29;20065;-77
2023/10/15 21:33:49;;;;;;;5.15;1.45;;;;;;;5.06;89.57;101110.75;10118108;29;20056;-77
2023/10/15 21:38:54;;;;;;;9.57;2.08;;;;;;;5.15;88.99;101105.91;10086377;29;20052;-77
2023/10/15 21:43:57;;;;;;;8.73;1.35;;;;;;;4.79;90.83;101096.00;10083911;29;20055;-77
2023/10/15 21:49:01;;;;;;;7.85;2.60;;;;;;;5.12;89.35;101090.94;10084647;29;20060;-77
2023/10/15 21:54:05;;;;;;;7.78;1.40;;;;;;;4.78;91.17;101099.59;10110895;29;21201;-77
2023/10/15 21:59:08;;;;;;;6.93;1.73;;;;;;;4.81;91.15;101094.16;10080493;29;20536;-77
2023/10/15 22:04:13;;;;;;;2.78;1.38;;;;;;;4.72;92.12;101089.25;10085095;29;20155;-77
2023/10/15 22:09:17;;;;;;;4.82;2.10;;;;;;;4.87;90.94;101101.84;10081609;29;20060;-77
2023/10/15 22:14:20;;;;;;;3.80;1.77;;;;;;;4.74;90.77;101104.19;10079281;29;20049;-78
2023/10/15 22:19:27;;;;;;;6.53;2.10;;;;;;;4.87;90.54;101116.97;10081594;29;20078;-78
2023/10/15 22:24:30;;;;;;;6.68;2.30;;;;;;;4.77;90.62;101108.50;10077057;29;20221;-77
2023/10/15 22:29:35;;;;;;;8.80;2.65;;;;;;;4.69;91.53;101111.53;10082082;29;20048;-76
2023/10/15 22:34:44;;;;;;;7.88;1.73;;;;;;;4.76;90.19;101110.31;10076133;29;20059;-78
2023/10/15 22:39:47;;;;;;;5.68;2.10;;;;;;;4.63;91.30;101103.81;10087655;29;20044;-79
2023/10/15 22:44:50;;;;;;;4.30;1.85;;;;;;;4.42;92.59;101103.00;10094019;29;20055;-77
2023/10/15 22:49:54;;;;;;;7.38;1.70;;;;;;;4.36;93.88;101112.09;10091390;29;20056;-77
2023/10/15 22:54:57;;;;;;;6.78;2.10;;;;;;;4.46;92.68;101093.91;10084323;29;20048;-77
2023/10/15 23:00:00;;;;;;;2.78;1.70;;;;;;;4.37;93.24;101097.84;10080285;29;20060;-77
2023/10/15 23:05:06;;;;;;;10.60;1.88;;;;;;;4.51;92.46;101094.59;10075367;29;20192;-77
2023/10/15 23:10:09;;;;;;;6.35;2.00;;;;;;;4.75;91.18;101084.63;10072914;29;20053;-77
2023/10/15 23:15:16;;;;;;;4.45;1.90;;;;;;;4.24;94.89;101090.47;10072875;29;20151;-78
2023/10/15 23:20:27;;;;;;;8.85;2.42;;;;;;;4.53;93.49;101091.88;10101886;29;20055;-76
2023/10/15 23:25:30;;;;;;;3.17;2.03;;;;;;;4.49;93.67;101080.47;10076605;29;20053;-76
2023/10/15 23:30:36;;;;;;;6.18;2.13;;;;;;;3.90;97.71;101089.28;10075276;29;20056;-76
2023/10/15 23:35:40;;;;;;;7.72;2.05;;;;;;;4.15;97.32;101095.25;10078039;29;20071;-76
2023/10/15 23:40:43;;;;;;;9.23;2.13;;;;;;;4.24;96.23;101093.13;10108130;29;20052;-76
2023/10/15 23:45:46;;;;;;;7.22;2.35;;;;;;;4.07;97.36;101097.38;10088713;29;20048;-76